createdAt,value
2023-04-19T00:00:15.127Z,15.49
2023-04-19T00:02:42.805Z,15.39
2023-04-19T00:05:09.612Z,15.44
2023-04-19T00:07:36.194Z,15.65
2023-04-19T00:10:02.807Z,15.77
2023-04-19T00:12:29.400Z,15.76
2023-04-19T00:14:56.011Z,15.90
2023-04-19T00:17:22.959Z,15.83
2023-04-19T00:19:49.679Z,15.76
2023-04-19T00:22:16.339Z,15.58
2023-04-19T00:24:42.951Z,15.58
2023-04-19T00:27:09.533Z,15.62
2023-04-19T00:29:36.117Z,15.70
2023-04-19T00:32:02.768Z,15.62
2023-04-19T00:34:29.351Z,15.63
2023-04-19T00:36:55.968Z,15.45
2023-04-19T00:39:22.554Z,15.29
2023-04-19T00:41:49.208Z,15.22
2023-04-19T00:44:16.027Z,15.54
2023-04-19T00:46:43.155Z,15.44
2023-04-19T00:49:09.783Z,15.45
2023-04-19T00:51:36.367Z,15.48
2023-04-19T00:54:03.021Z,15.31
2023-04-19T00:56:29.602Z,15.62
2023-04-19T00:58:56.180Z,15.63
2023-04-19T01:01:22.829Z,15.63
2023-04-19T01:03:49.517Z,15.45
2023-04-19T01:06:16.193Z,15.35
2023-04-19T01:08:42.818Z,15.21
2023-04-19T01:11:09.419Z,15.43
2023-04-19T01:13:35.992Z,15.26
2023-04-19T01:16:02.670Z,15.13
2023-04-19T01:18:29.253Z,15.18
2023-04-19T01:20:55.826Z,15.29
2023-04-19T01:23:22.398Z,15.39
2023-04-19T01:25:49.056Z,15.42
2023-04-19T01:28:15.647Z,15.37
2023-04-19T01:30:42.295Z,15.44
2023-04-19T01:33:08.910Z,15.55
2023-04-19T01:35:35.481Z,15.48
2023-04-19T01:38:02.213Z,15.38
2023-04-19T01:40:28.810Z,15.57
2023-04-19T01:42:55.412Z,15.50
2023-04-19T01:45:22.009Z,15.35
2023-04-19T01:47:48.635Z,15.47
2023-04-19T01:50:16.097Z,15.51
2023-04-19T01:52:42.682Z,15.20
2023-04-19T01:55:09.271Z,15.53
2023-04-19T01:57:35.852Z,15.53
2023-04-19T02:00:02.504Z,15.51
2023-04-19T02:02:29.219Z,15.55
2023-04-19T02:04:55.907Z,15.75
2023-04-19T02:07:22.491Z,15.59
2023-04-19T02:09:49.095Z,15.38
2023-04-19T02:12:15.673Z,15.33
2023-04-19T02:14:42.268Z,15.18
2023-04-19T02:17:08.869Z,15.24
2023-04-19T02:19:35.449Z,15.25
2023-04-19T02:22:02.039Z,15.40
2023-04-19T02:24:28.584Z,15.39
2023-04-19T02:26:55.174Z,15.32
2023-04-19T02:29:21.750Z,15.03
2023-04-19T02:31:48.439Z,15.16
2023-04-19T02:34:15.403Z,15.06
2023-04-19T02:36:42.272Z,15.26
2023-04-19T02:39:08.862Z,15.19
2023-04-19T02:41:35.524Z,15.27
2023-04-19T02:44:02.156Z,15.23
2023-04-19T02:46:28.777Z,15.26
2023-04-19T02:48:55.383Z,15.13
2023-04-19T02:51:22.388Z,15.21
2023-04-19T02:53:49.016Z,15.22
2023-04-19T02:56:15.618Z,14.89
2023-04-19T02:58:42.241Z,14.79
2023-04-19T03:01:08.970Z,15.01
2023-04-19T03:03:36.143Z,14.92
2023-04-19T03:06:03.003Z,14.64
2023-04-19T03:08:29.614Z,14.74
2023-04-19T03:10:56.194Z,14.84
2023-04-19T03:13:22.755Z,14.51
2023-04-19T03:15:49.436Z,14.73
2023-04-19T03:18:16.093Z,14.42
2023-04-19T03:20:42.695Z,14.38
2023-04-19T03:23:09.295Z,14.39
2023-04-19T03:25:35.907Z,14.47
2023-04-19T03:28:02.518Z,14.38
2023-04-19T03:30:29.159Z,14.33
2023-04-19T03:32:55.819Z,14.06
2023-04-19T03:35:22.484Z,14.00
2023-04-19T03:37:49.166Z,14.12
2023-04-19T03:40:16.028Z,13.92
2023-04-19T03:42:42.621Z,13.92
2023-04-19T03:45:09.227Z,13.95
2023-04-19T03:47:35.867Z,13.95
2023-04-19T03:50:02.462Z,14.03
2023-04-19T03:52:29.403Z,14.07
2023-04-19T03:54:55.972Z,13.99
2023-04-19T03:57:22.567Z,13.97
2023-04-19T03:59:49.605Z,13.77
2023-04-19T04:02:16.230Z,13.93
2023-04-19T04:04:43.130Z,13.93
2023-04-19T04:07:09.947Z,13.86
2023-04-19T04:09:36.560Z,13.93
2023-04-19T04:12:03.137Z,13.77
2023-04-19T04:14:29.699Z,13.70
2023-04-19T04:16:56.384Z,13.58
2023-04-19T04:19:22.971Z,13.81
2023-04-19T04:21:49.565Z,13.42
2023-04-19T04:24:16.300Z,13.59
2023-04-19T04:26:42.950Z,13.47
2023-04-19T04:29:09.535Z,13.34
2023-04-19T04:31:36.266Z,13.32
2023-04-19T04:34:02.934Z,13.56
2023-04-19T04:36:29.539Z,13.30
2023-04-19T04:38:56.183Z,13.38
2023-04-19T04:41:22.939Z,13.44
2023-04-19T04:43:58.575Z,13.74
2023-04-19T04:46:35.304Z,13.85
2023-04-19T04:49:02.271Z,13.94
2023-04-19T04:51:28.910Z,14.13
2023-04-19T04:53:55.473Z,13.90
2023-04-19T04:56:22.133Z,14.25
2023-04-19T04:58:48.736Z,14.32
2023-04-19T05:01:15.370Z,14.47
2023-04-19T05:03:41.998Z,14.48
2023-04-19T05:06:09.364Z,14.56
2023-04-19T05:08:35.949Z,14.45
2023-04-19T05:11:02.543Z,14.41
2023-04-19T05:13:29.151Z,14.69
2023-04-19T05:15:55.737Z,14.64
2023-04-19T05:18:22.540Z,14.80
2023-04-19T05:20:49.150Z,15.18
2023-04-19T05:23:15.731Z,15.71
2023-04-19T05:25:42.306Z,15.96
2023-04-19T05:28:08.937Z,16.27
2023-04-19T05:30:35.522Z,16.34
2023-04-19T05:33:02.227Z,16.32
2023-04-19T05:35:28.855Z,16.61
2023-04-19T05:37:55.457Z,16.63
2023-04-19T05:40:22.107Z,16.70
2023-04-19T05:42:48.675Z,17.02
2023-04-19T05:45:15.263Z,16.98
2023-04-19T05:47:42.094Z,17.26
2023-04-19T05:50:08.829Z,17.39
2023-04-19T05:52:35.459Z,17.60
2023-04-19T05:55:02.249Z,17.60
2023-04-19T05:57:28.861Z,17.48
2023-04-19T05:59:55.712Z,17.68
2023-04-19T06:02:22.463Z,17.60
2023-04-19T06:04:49.412Z,17.64
2023-04-19T06:07:27.516Z,17.57
2023-04-19T06:09:57.316Z,17.22
2023-04-19T06:12:23.901Z,17.18
2023-04-19T06:14:50.507Z,17.34
2023-04-19T06:17:19.317Z,17.51
2023-04-19T06:19:45.956Z,17.41
2023-04-19T06:22:12.562Z,17.48
2023-04-19T06:24:39.209Z,17.56
2023-04-19T06:27:05.792Z,17.45
2023-04-19T06:29:32.392Z,17.26
2023-04-19T06:31:59.139Z,17.46
2023-04-19T06:34:25.910Z,17.36
2023-04-19T06:36:52.508Z,17.50
2023-04-19T06:39:19.094Z,17.89
2023-04-19T06:41:45.672Z,18.21
2023-04-19T06:44:12.233Z,18.00
2023-04-19T06:46:38.833Z,18.09
2023-04-19T06:49:05.391Z,18.19
2023-04-19T06:51:32.063Z,18.63
2023-04-19T06:53:58.672Z,18.91
2023-04-19T06:56:25.253Z,18.64
2023-04-19T06:58:51.853Z,18.93
2023-04-19T07:01:18.434Z,19.54
2023-04-19T07:03:45.236Z,19.79
2023-04-19T07:06:11.975Z,19.78
2023-04-19T07:08:49.329Z,19.69
2023-04-19T07:11:16.586Z,19.79
2023-04-19T07:13:43.150Z,19.59
2023-04-19T07:16:09.909Z,19.62
2023-04-19T07:18:36.551Z,19.35
2023-04-19T07:21:03.125Z,19.41
2023-04-19T07:23:29.711Z,19.62
2023-04-19T07:25:56.290Z,20.10
2023-04-19T07:28:22.851Z,20.47
2023-04-19T07:30:49.457Z,20.12
2023-04-19T07:33:16.133Z,20.66
2023-04-19T07:35:42.782Z,20.62
2023-04-19T07:38:09.359Z,20.91
2023-04-19T07:40:36.013Z,21.25
2023-04-19T07:43:02.639Z,21.19
2023-04-19T07:45:29.198Z,21.12
2023-04-19T07:47:55.850Z,21.22
2023-04-19T07:50:23.330Z,21.39
2023-04-19T07:52:49.906Z,21.50
2023-04-19T07:55:16.534Z,21.00
2023-04-19T07:57:43.086Z,21.08
2023-04-19T08:00:09.712Z,20.55
2023-04-19T08:02:36.431Z,20.82
2023-04-19T08:05:03.208Z,21.20
2023-04-19T08:07:29.878Z,21.23
2023-04-19T08:09:56.600Z,21.19
2023-04-19T08:12:36.359Z,20.90
2023-04-19T08:15:15.415Z,20.80
2023-04-19T08:17:51.681Z,21.21
2023-04-19T08:20:18.284Z,21.02
2023-04-19T08:22:44.949Z,21.33
2023-04-19T08:25:11.521Z,21.10
2023-04-19T08:27:38.213Z,21.74
2023-04-19T08:30:04.825Z,21.86
2023-04-19T08:32:31.436Z,21.41
2023-04-19T08:34:58.077Z,21.89
2023-04-19T08:37:24.706Z,22.05
2023-04-19T08:39:51.325Z,22.29
2023-04-19T08:42:33.181Z,23.02
2023-04-19T08:45:26.118Z,23.06
2023-04-19T08:47:59.531Z,23.43
2023-04-19T08:50:35.411Z,22.86
2023-04-19T08:55:36.817Z,24.04
2023-04-19T08:58:04.116Z,23.60
2023-04-19T09:00:32.314Z,22.93
2023-04-19T09:02:59.282Z,22.18
2023-04-19T09:05:26.398Z,22.29
2023-04-19T09:07:53.215Z,22.43
2023-04-19T09:10:20.123Z,22.09
2023-04-19T09:12:46.736Z,22.11
2023-04-19T09:15:13.463Z,21.99
2023-04-19T09:17:40.248Z,21.82
2023-04-19T09:20:06.879Z,22.13
2023-04-19T09:22:33.517Z,21.44
2023-04-19T09:27:29.766Z,22.20
2023-04-19T09:29:56.333Z,22.54
2023-04-19T09:32:22.963Z,22.26
2023-04-19T09:34:49.590Z,22.64
2023-04-19T09:37:33.012Z,22.53
2023-04-19T09:40:05.046Z,22.57
2023-04-19T09:42:54.503Z,22.34
2023-04-19T09:47:47.695Z,22.70
2023-04-19T09:50:23.647Z,22.50
2023-04-19T09:52:52.669Z,22.32
2023-04-19T09:57:48.811Z,22.52
2023-04-19T10:00:15.410Z,22.03
2023-04-19T10:02:42.297Z,21.55
2023-04-19T10:07:38.688Z,21.32
2023-04-19T10:10:18.587Z,21.53
2023-04-19T10:13:07.497Z,21.37
2023-04-19T10:15:47.222Z,20.91
2023-04-19T10:18:18.857Z,21.14
2023-04-19T10:20:45.451Z,21.13
2023-04-19T10:23:12.006Z,21.15
2023-04-19T10:25:38.603Z,20.97
2023-04-19T10:28:05.317Z,20.99
2023-04-19T10:30:31.915Z,20.80
2023-04-19T10:32:58.586Z,20.58
2023-04-19T10:35:25.238Z,20.71
2023-04-19T10:37:51.874Z,20.87
2023-04-19T10:40:18.535Z,20.93
2023-04-19T10:42:47.586Z,20.89
2023-04-19T10:45:14.155Z,20.82
2023-04-19T10:47:40.800Z,21.06
2023-04-19T10:50:07.429Z,21.23
2023-04-19T10:52:34.148Z,21.31
2023-04-19T10:55:00.814Z,21.35
2023-04-19T10:57:27.410Z,21.33
2023-04-19T10:59:53.980Z,21.33
2023-04-19T11:02:20.690Z,20.54
2023-04-19T11:04:47.436Z,20.45
2023-04-19T11:07:14.136Z,20.49
2023-04-19T11:09:40.726Z,20.31
2023-04-19T11:12:07.331Z,19.25
2023-04-19T11:14:34.477Z,19.53
2023-04-19T11:17:01.105Z,18.73
2023-04-19T11:19:27.806Z,18.21
2023-04-19T11:21:54.368Z,18.31
2023-04-19T11:24:20.984Z,18.57
2023-04-19T11:26:47.641Z,18.07
2023-04-19T11:29:14.411Z,18.10
2023-04-19T11:31:41.188Z,17.63
2023-04-19T11:34:07.811Z,17.39
2023-04-19T11:36:34.382Z,17.43
2023-04-19T11:39:01.058Z,17.63
2023-04-19T11:41:27.667Z,18.09
2023-04-19T11:43:54.326Z,18.53
2023-04-19T11:46:23.247Z,18.72
2023-04-19T11:48:49.956Z,18.66
2023-04-19T11:51:16.542Z,18.85
2023-04-19T11:53:43.175Z,18.71
2023-04-19T11:56:09.763Z,18.66
2023-04-19T11:58:36.365Z,18.25
2023-04-19T12:01:02.955Z,18.09
2023-04-19T12:03:29.774Z,18.59
2023-04-19T12:05:58.918Z,18.63
2023-04-19T12:08:25.583Z,18.50
2023-04-19T12:10:52.171Z,18.54
2023-04-19T12:13:18.763Z,18.57
2023-04-19T12:15:45.335Z,18.83
2023-04-19T12:18:11.954Z,19.38
2023-04-19T12:20:38.591Z,19.43
2023-04-19T12:23:05.273Z,18.88
2023-04-19T12:25:31.902Z,19.24
2023-04-19T12:27:58.543Z,19.26
2023-04-19T12:30:25.179Z,19.04
2023-04-19T12:32:51.776Z,18.17
2023-04-19T12:35:18.404Z,17.97
2023-04-19T12:37:44.960Z,17.57
2023-04-19T12:40:11.547Z,16.95
2023-04-19T12:42:38.180Z,16.85
2023-04-19T12:45:04.869Z,16.59
2023-04-19T12:47:32.874Z,16.98
2023-04-19T12:49:59.472Z,17.23
2023-04-19T12:52:26.077Z,17.42
2023-04-19T12:54:52.699Z,17.83
2023-04-19T12:57:19.587Z,17.21
2023-04-19T12:59:46.211Z,17.73
2023-04-19T13:02:12.892Z,18.43
2023-04-19T13:04:39.686Z,18.76
2023-04-19T13:07:06.691Z,18.66
2023-04-19T13:09:33.299Z,18.75
2023-04-19T13:11:59.853Z,18.77
2023-04-19T13:14:26.435Z,17.84
2023-04-19T13:16:52.993Z,17.96
2023-04-19T13:19:19.596Z,18.00
2023-04-19T13:21:46.179Z,17.82
2023-04-19T13:24:12.940Z,18.23
2023-04-19T13:26:39.623Z,18.84
2023-04-19T13:29:06.218Z,18.36
2023-04-19T13:31:32.879Z,17.70
2023-04-19T13:33:59.478Z,17.96
2023-04-19T13:36:26.076Z,18.02
2023-04-19T13:38:52.641Z,17.74
2023-04-19T13:41:19.264Z,18.05
2023-04-19T13:43:45.873Z,18.44
2023-04-19T13:46:12.544Z,17.90
2023-04-19T13:48:39.201Z,18.97
2023-04-19T13:51:05.783Z,19.80
2023-04-19T13:53:32.433Z,19.03
2023-04-19T13:55:59.232Z,18.98
2023-04-19T13:58:25.804Z,19.36
2023-04-19T14:00:52.485Z,19.40
2023-04-19T14:03:19.256Z,19.49
2023-04-19T14:05:45.914Z,19.44
2023-04-19T14:08:12.502Z,19.03
2023-04-19T14:10:39.126Z,18.61
2023-04-19T14:13:05.798Z,19.64
2023-04-19T14:15:32.400Z,20.21
2023-04-19T14:17:59.084Z,20.43
2023-04-19T14:20:25.716Z,21.33
2023-04-19T14:22:52.365Z,21.62
2023-04-19T14:25:19.038Z,20.74
2023-04-19T14:27:45.779Z,20.08
2023-04-19T14:30:12.354Z,19.48
2023-04-19T14:32:39.122Z,20.15
2023-04-19T14:35:05.852Z,20.88
2023-04-19T14:37:32.465Z,20.19
2023-04-19T14:39:59.032Z,19.84
2023-04-19T14:42:25.608Z,19.55
2023-04-19T14:44:52.426Z,18.83
2023-04-19T14:47:19.285Z,18.62
2023-04-19T14:49:45.897Z,17.14
2023-04-19T14:52:12.487Z,16.46
2023-04-19T14:54:39.134Z,16.47
2023-04-19T14:57:05.709Z,16.64
2023-04-19T14:59:32.354Z,16.34
2023-04-19T15:01:59.022Z,15.89
2023-04-19T15:04:25.934Z,15.35
2023-04-19T15:06:52.689Z,15.20
2023-04-19T15:09:19.478Z,14.88
2023-04-19T15:11:46.131Z,14.48
2023-04-19T15:14:12.972Z,14.65
2023-04-19T15:16:39.687Z,14.62
2023-04-19T15:19:06.793Z,14.40
2023-04-19T15:21:33.426Z,14.47
2023-04-19T15:24:00.185Z,15.07
2023-04-19T15:26:26.819Z,14.92
2023-04-19T15:28:53.382Z,15.27
2023-04-19T15:31:20.078Z,15.66
2023-04-19T15:33:46.698Z,15.37
2023-04-19T15:36:13.293Z,15.16
2023-04-19T15:38:40.410Z,14.81
2023-04-19T15:41:07.575Z,15.17
2023-04-19T15:43:34.134Z,15.43
2023-04-19T15:46:00.886Z,15.46
2023-04-19T15:48:27.555Z,15.16
2023-04-19T15:50:54.167Z,15.24
2023-04-19T15:53:20.750Z,15.45
2023-04-19T15:55:47.322Z,15.33
2023-04-19T15:58:14.025Z,15.82
2023-04-19T16:00:40.651Z,15.80
2023-04-19T16:03:07.422Z,15.84
2023-04-19T16:05:34.295Z,16.25
2023-04-19T16:08:01.326Z,16.38
2023-04-19T16:10:27.949Z,16.62
2023-04-19T16:12:54.545Z,16.65
2023-04-19T16:15:21.114Z,16.57
2023-04-19T16:17:47.825Z,16.60
2023-04-19T16:20:14.398Z,16.79
2023-04-19T16:22:41.820Z,17.01
2023-04-19T16:25:08.415Z,17.13
2023-04-19T16:27:35.029Z,17.13
2023-04-19T16:30:01.645Z,16.83
2023-04-19T16:32:28.605Z,16.79
2023-04-19T16:34:55.316Z,16.06
2023-04-19T16:37:21.894Z,16.06
2023-04-19T16:39:48.466Z,15.82
2023-04-19T16:42:15.048Z,16.17
2023-04-19T16:44:41.668Z,16.35
2023-04-19T16:47:08.327Z,16.32
2023-04-19T16:49:34.911Z,16.25
2023-04-19T16:52:01.468Z,16.39
2023-04-19T16:54:28.157Z,16.32
2023-04-19T16:56:54.727Z,16.27
2023-04-19T16:59:21.340Z,16.19
2023-04-19T17:01:47.923Z,15.97
2023-04-19T17:04:14.729Z,16.16
2023-04-19T17:06:41.482Z,16.25
2023-04-19T17:09:08.094Z,16.29
2023-04-19T17:11:34.735Z,16.20
2023-04-19T17:14:01.342Z,16.09
2023-04-19T17:16:28.131Z,15.93
2023-04-19T17:18:54.958Z,16.02
2023-04-19T17:21:21.561Z,15.93
2023-04-19T17:23:48.183Z,16.10
2023-04-19T17:26:14.779Z,16.00
2023-04-19T17:28:41.347Z,15.94
2023-04-19T17:31:07.980Z,16.05
2023-04-19T17:33:34.567Z,16.01
2023-04-19T17:36:01.129Z,15.91
2023-04-19T17:38:27.745Z,15.71
2023-04-19T17:40:54.354Z,15.59
2023-04-19T17:43:20.910Z,15.49
2023-04-19T17:45:47.530Z,15.38
2023-04-19T17:48:14.170Z,15.37
2023-04-19T17:50:40.858Z,15.37
2023-04-19T17:53:07.444Z,15.31
2023-04-19T17:55:34.058Z,15.45
2023-04-19T17:58:00.671Z,15.36
2023-04-19T18:00:27.282Z,15.50
2023-04-19T18:02:53.958Z,15.59
2023-04-19T18:05:20.650Z,15.61
2023-04-19T18:07:47.234Z,15.47
2023-04-19T18:10:13.841Z,15.25
2023-04-19T18:12:40.522Z,15.37
2023-04-19T18:15:07.150Z,15.30
2023-04-19T18:17:33.836Z,15.19
2023-04-19T18:20:00.596Z,15.13
2023-04-19T18:22:27.196Z,15.21
2023-04-19T18:24:53.790Z,15.35
2023-04-19T18:27:20.374Z,15.48
2023-04-19T18:29:46.964Z,15.47
2023-04-19T18:32:13.645Z,15.34
2023-04-19T18:34:40.323Z,15.39
2023-04-19T18:37:06.968Z,15.39
2023-04-19T18:39:33.953Z,15.47
2023-04-19T18:42:00.536Z,15.56
2023-04-19T18:44:49.715Z,15.65
2023-04-19T18:47:13.744Z,15.61
2023-04-19T18:49:40.457Z,15.57
2023-04-19T18:52:07.159Z,15.61
2023-04-19T18:54:33.737Z,15.69
2023-04-19T18:59:30.110Z,15.36
2023-04-19T19:01:56.948Z,15.38
2023-04-19T19:04:35.004Z,15.44
2023-04-19T19:07:22.740Z,15.23
2023-04-19T19:10:01.057Z,15.11
2023-04-19T19:12:29.040Z,15.01
2023-04-19T19:14:55.623Z,15.15
2023-04-19T19:17:22.412Z,15.11
2023-04-19T19:19:49.028Z,15.22
2023-04-19T19:22:26.345Z,15.22
2023-04-19T19:24:55.217Z,15.21
2023-04-19T19:27:21.872Z,15.26
2023-04-19T19:29:48.614Z,15.24
2023-04-19T19:32:15.167Z,15.20
2023-04-19T19:34:54.001Z,15.27
2023-04-19T19:37:22.708Z,14.89
2023-04-19T19:39:49.703Z,14.81
2023-04-19T19:42:16.566Z,14.88
2023-04-19T19:44:43.247Z,14.85
2023-04-19T19:47:10.920Z,14.65
2023-04-19T19:52:07.523Z,14.75
2023-04-19T19:54:34.227Z,14.75
2023-04-19T19:57:48.419Z,14.66
2023-04-19T19:59:54.556Z,14.61
2023-04-19T20:02:22.882Z,14.74
2023-04-19T20:04:49.973Z,14.55
2023-04-19T20:09:46.323Z,14.44
2023-04-19T20:12:12.929Z,14.52
2023-04-19T20:14:39.548Z,14.49
2023-04-19T20:17:06.274Z,14.49
2023-04-19T20:19:32.867Z,14.42
2023-04-19T20:21:59.644Z,14.62
2023-04-19T20:24:26.236Z,14.75
2023-04-19T20:26:52.850Z,14.77
2023-04-19T20:29:19.407Z,14.77
2023-04-19T20:31:46.100Z,14.76
2023-04-19T20:34:12.681Z,14.81
2023-04-19T20:36:39.329Z,14.77
2023-04-19T20:39:06.699Z,14.71
2023-04-19T20:41:33.329Z,14.80
2023-04-19T20:43:59.977Z,14.74
2023-04-19T20:46:26.617Z,14.72
2023-04-19T20:48:53.286Z,14.72
2023-04-19T20:51:19.865Z,14.60
2023-04-19T20:53:46.475Z,14.69
2023-04-19T20:56:13.094Z,14.74
2023-04-19T20:58:39.939Z,14.69
2023-04-19T21:01:06.766Z,14.57
2023-04-19T21:03:33.621Z,14.27
2023-04-19T21:06:00.409Z,14.51
2023-04-19T21:08:26.988Z,14.50
2023-04-19T21:10:53.556Z,14.49
2023-04-19T21:13:20.152Z,14.26
2023-04-19T21:15:46.793Z,14.32
2023-04-19T21:18:13.393Z,14.15
2023-04-19T21:20:40.028Z,14.17
2023-04-19T21:23:06.621Z,14.36
2023-04-19T21:25:33.199Z,14.36
2023-04-19T21:27:59.822Z,14.20
2023-04-19T21:30:26.414Z,14.01
2023-04-19T21:32:53.087Z,14.00
2023-04-19T21:35:19.751Z,13.87
2023-04-19T21:37:46.383Z,13.96
2023-04-19T21:40:12.983Z,14.06
2023-04-19T21:42:39.724Z,14.01
2023-04-19T21:45:06.320Z,14.09
2023-04-19T21:47:32.937Z,14.25
2023-04-19T21:49:59.927Z,14.26
2023-04-19T21:52:26.491Z,14.19
2023-04-19T21:54:53.112Z,13.91
2023-04-19T21:57:19.975Z,13.90
2023-04-19T21:59:46.546Z,13.93
2023-04-19T22:02:13.239Z,13.97
2023-04-19T22:04:40.054Z,13.86
2023-04-19T22:07:06.667Z,13.73
2023-04-19T22:09:33.234Z,13.81
2023-04-19T22:11:59.809Z,13.85
2023-04-19T22:14:26.537Z,13.80
2023-04-19T22:16:53.246Z,13.75
2023-04-19T22:19:19.820Z,13.76
2023-04-19T22:21:46.456Z,13.50
2023-04-19T22:24:13.304Z,13.71
2023-04-19T22:26:39.955Z,13.76
2023-04-19T22:29:06.519Z,13.70
2023-04-19T22:31:33.191Z,13.61
2023-04-19T22:33:59.826Z,13.53
2023-04-19T22:36:26.520Z,13.39
2023-04-19T22:38:53.116Z,13.53
2023-04-19T22:41:19.696Z,13.40
2023-04-19T22:43:46.253Z,13.59
2023-04-19T22:46:13.189Z,13.39
2023-04-19T22:48:39.753Z,13.28
2023-04-19T22:51:06.396Z,13.32
2023-04-19T22:53:33.190Z,13.17
2023-04-19T22:55:59.849Z,13.19
2023-04-19T22:58:26.463Z,13.06
2023-04-19T23:00:53.024Z,12.98
2023-04-19T23:03:19.651Z,12.89
2023-04-19T23:05:46.245Z,13.07
2023-04-19T23:08:12.990Z,13.03
2023-04-19T23:10:39.619Z,13.07
2023-04-19T23:13:06.189Z,13.00
2023-04-19T23:15:32.825Z,13.06
2023-04-19T23:17:59.510Z,13.09
2023-04-19T23:20:26.484Z,13.01
2023-04-19T23:22:53.060Z,12.87
2023-04-19T23:25:19.655Z,13.12
2023-04-19T23:27:46.247Z,13.01
2023-04-19T23:30:12.858Z,13.05
2023-04-19T23:32:39.465Z,13.07
2023-04-19T23:35:06.063Z,13.11
2023-04-19T23:37:32.661Z,12.98
2023-04-19T23:40:00.241Z,12.61
2023-04-19T23:42:26.827Z,12.61
2023-04-19T23:44:53.405Z,12.67
2023-04-19T23:47:19.992Z,12.81
2023-04-19T23:49:46.585Z,12.70
2023-04-19T23:52:13.212Z,12.69
2023-04-19T23:54:40.119Z,12.57
2023-04-19T23:57:06.701Z,12.38
2023-04-19T23:59:33.337Z,12.59
